Time;durP1;ratioP1;P1;durP2;ratioP2;P2;SDS_P1;SDS_P2;PMS_P1;PMS_P2;Temp;Humidity;BMP_temperature;BMP_pressure;BME280_temperature;BME280_humidity;BME280_pressure;Samples;Min_cycle;Max_cycle;Signal;HPM_P1;HPM_P2
2022/06/19 00:00:39;;;;;;;10.27;5.38;;;;;;;;;;7372558;19;20156;-82
2022/06/19 00:03:07;;;;;;;15.85;5.97;;;;;;;;;;7378856;19;20673;-80
2022/06/19 00:05:33;;;;;;;13.07;6.75;;;;;;;;;;7385988;19;20127;-80
2022/06/19 00:08:00;;;;;;;19.80;6.55;;;;;;;;;;7379730;19;20133;-80
2022/06/19 00:10:27;;;;;;;14.32;7.00;;;;;;;;;;7381553;19;20935;-85
2022/06/19 00:12:52;;;;;;;18.48;6.47;;;;;;;;;;7365302;19;20169;-83
2022/06/19 00:15:18;;;;;;;12.55;6.60;;;;;;;;;;7373003;19;20148;-80
2022/06/19 00:17:44;;;;;;;13.80;6.40;;;;;;;;;;7369431;19;20568;-79
2022/06/19 00:20:11;;;;;;;13.95;6.00;;;;;;;;;;7381430;19;20671;-80
2022/06/19 00:22:38;;;;;;;13.40;5.40;;;;;;;;;;7364489;19;20152;-80
2022/06/19 00:25:04;;;;;;;17.63;6.50;;;;;;;;;;7382187;19;20141;-79
2022/06/19 00:27:31;;;;;;;11.18;6.00;;;;;;;;;;7375547;19;21007;-83
2022/06/19 00:29:58;;;;;;;14.60;7.38;;;;;;;;;;7382951;19;20148;-80
2022/06/19 00:32:25;;;;;;;17.27;7.60;;;;;;;;;;7384871;19;20152;-79
2022/06/19 00:34:51;;;;;;;20.90;6.90;;;;;;;;;;7385237;19;20567;-79
2022/06/19 00:37:17;;;;;;;17.67;6.55;;;;;;;;;;7378463;19;20179;-79
2022/06/19 00:39:43;;;;;;;10.55;6.10;;;;;;;;;;7377113;19;20192;-79
2022/06/19 00:42:11;;;;;;;13.75;6.03;;;;;;;;;;7375717;19;20555;-80
2022/06/19 00:44:37;;;;;;;14.85;6.68;;;;;;;;;;7372379;19;20151;-82
2022/06/19 00:47:12;;;;;;;17.10;5.80;;;;;;;;;;7375303;19;21012;-79
2022/06/19 00:49:52;;;;;;;14.43;6.13;;;;;;;;;;7378129;19;20152;-79
2022/06/19 00:52:20;;;;;;;12.30;5.70;;;;;;;;;;7382521;19;20164;-79
2022/06/19 00:54:48;;;;;;;10.40;5.15;;;;;;;;;;7374150;19;20160;-83
2022/06/19 00:57:15;;;;;;;13.07;5.10;;;;;;;;;;7371103;19;20650;-79
2022/06/19 00:59:43;;;;;;;12.95;6.35;;;;;;;;;;7380024;19;20156;-83
2022/06/19 01:02:09;;;;;;;15.15;5.90;;;;;;;;;;7379055;19;20152;-79
2022/06/19 01:04:40;;;;;;;12.82;6.25;;;;;;;;;;7394804;19;20160;-84
2022/06/19 01:07:06;;;;;;;14.10;6.03;;;;;;;;;;7397390;19;20180;-84
2022/06/19 01:09:32;;;;;;;11.52;5.40;;;;;;;;;;7387140;19;20152;-80
2022/06/19 01:12:00;;;;;;;11.93;5.88;;;;;;;;;;7376402;19;20160;-80
2022/06/19 01:14:27;;;;;;;11.38;6.40;;;;;;;;;;7372326;19;20152;-80
2022/06/19 01:16:53;;;;;;;15.35;6.18;;;;;;;;;;7379628;19;20158;-80
2022/06/19 01:19:26;;;;;;;15.00;6.28;;;;;;;;;;7386359;19;20137;-80
2022/06/19 01:22:12;;;;;;;14.68;5.75;;;;;;;;;;7381857;19;20645;-80
2022/06/19 01:24:44;;;;;;;13.68;5.07;;;;;;;;;;7377056;19;20216;-80
2022/06/19 01:28:45;;;;;;;10.15;5.15;;;;;;;;;;7375182;19;20180;-81
2022/06/19 01:29:59;;;;;;;11.25;5.80;;;;;;;;;;7383603;19;20597;-85
2022/06/19 13:34:02;;;;;;;10.77;7.93;;;;;;;;;;7398514;19;20196;-88
2022/06/19 13:36:44;;;;;;;14.80;8.50;;;;;;;;;;7401660;19;20140;-88
2022/06/19 13:39:16;;;;;;;20.83;16.80;;;;;;;;;;7402244;19;20192;-89
2022/06/19 13:42:04;;;;;;;28.33;25.50;;;;;;;;;;7405002;19;20252;-87
2022/06/19 13:45:05;;;;;;;13.43;8.25;;;;;;;;;;7398820;19;20158;-87
2022/06/19 13:47:35;;;;;;;16.48;8.45;;;;;;;;;;7399669;19;20623;-88
2022/06/19 13:50:06;;;;;;;18.45;10.48;;;;;;;;;;7398868;19;20140;-89
2022/06/19 13:52:32;;;;;;;14.80;10.52;;;;;;;;;;7398034;19;20777;-87
2022/06/19 13:55:03;;;;;;;17.52;12.77;;;;;;;;;;7401439;19;20155;-89
2022/06/19 13:57:36;;;;;;;26.02;20.20;;;;;;;;;;7423515;19;20151;-88
2022/06/19 14:00:19;;;;;;;17.70;10.63;;;;;;;;;;7424454;19;20144;-89
2022/06/19 14:03:04;;;;;;;18.17;12.52;;;;;;;;;;7428572;19;20128;-88
2022/06/19 14:05:30;;;;;;;19.75;12.23;;;;;;;;;;7427151;19;20147;-88
2022/06/19 14:08:05;;;;;;;21.73;17.08;;;;;;;;;;7424210;19;20148;-88
2022/06/19 14:10:35;;;;;;;49.40;39.63;;;;;;;;;;7398561;19;20608;-86
2022/06/19 14:13:07;;;;;;;48.13;43.70;;;;;;;;;;7401663;19;20482;-87
2022/06/19 14:15:44;;;;;;;25.85;19.75;;;;;;;;;;7399041;19;20681;-87
2022/06/19 14:18:19;;;;;;;21.42;11.90;;;;;;;;;;7413394;19;20152;-86
2022/06/19 14:20:51;;;;;;;26.48;16.45;;;;;;;;;;7410054;19;20151;-85
2022/06/19 14:23:22;;;;;;;18.30;14.23;;;;;;;;;;7410192;19;20179;-86
2022/06/19 14:25:51;;;;;;;17.20;9.75;;;;;;;;;;7404651;19;20149;-88
2022/06/19 14:28:24;;;;;;;18.83;10.10;;;;;;;;;;7402352;19;20152;-88
2022/06/19 14:30:55;;;;;;;73.88;66.60;;;;;;;;;;7397242;19;20176;-87
2022/06/19 14:33:32;;;;;;;21.98;13.90;;;;;;;;;;7398103;19;20148;-89
2022/06/19 14:36:23;;;;;;;22.80;11.73;;;;;;;;;;7394820;19;20167;-88
2022/06/19 14:38:50;;;;;;;16.55;10.73;;;;;;;;;;7399834;19;20617;-83
2022/06/19 14:41:19;;;;;;;14.63;8.73;;;;;;;;;;7395429;19;20160;-84
2022/06/19 14:43:52;;;;;;;23.08;11.63;;;;;;;;;;7394306;19;20165;-84
2022/06/19 14:46:25;;;;;;;18.65;9.52;;;;;;;;;;7395948;19;20159;-83
2022/06/19 14:49:16;;;;;;;23.70;8.90;;;;;;;;;;7396416;19;20216;-84
2022/06/19 14:51:45;;;;;;;17.63;9.13;;;;;;;;;;7393833;19;20186;-84
2022/06/19 14:54:27;;;;;;;17.58;10.40;;;;;;;;;;7394466;19;20612;-84
2022/06/19 14:57:11;;;;;;;24.15;16.52;;;;;;;;;;7396475;19;20140;-84
2022/06/19 14:59:58;;;;;;;20.25;9.43;;;;;;;;;;7396271;19;20175;-85
2022/06/19 15:02:29;;;;;;;25.67;18.98;;;;;;;;;;7399762;19;20433;-85
2022/06/19 15:05:00;;;;;;;19.90;10.00;;;;;;;;;;7398313;19;20124;-86
2022/06/19 15:07:27;;;;;;;33.20;20.80;;;;;;;;;;7395874;19;20132;-86
2022/06/19 15:10:01;;;;;;;22.23;10.43;;;;;;;;;;7397868;19;20143;-84
2022/06/19 15:12:28;;;;;;;16.63;9.45;;;;;;;;;;7390697;19;20164;-83
2022/06/19 15:14:53;;;;;;;21.52;13.02;;;;;;;;;;7395599;19;20156;-85
2022/06/19 15:17:31;;;;;;;18.60;10.02;;;;;;;;;;7397210;19;20549;-85
2022/06/19 15:19:57;;;;;;;18.17;10.13;;;;;;;;;;7392367;19;20227;-89
2022/06/19 15:22:26;;;;;;;19.92;9.05;;;;;;;;;;7393968;19;20148;-85
2022/06/19 15:24:53;;;;;;;16.00;9.73;;;;;;;;;;7390970;19;20180;-85
2022/06/19 15:27:25;;;;;;;20.52;9.38;;;;;;;;;;7387183;19;20199;-85
2022/06/19 15:29:57;;;;;;;20.85;9.60;;;;;;;;;;7393855;19;20151;-88
2022/06/19 15:32:23;;;;;;;18.42;9.90;;;;;;;;;;7393239;19;20742;-86
2022/06/19 15:34:54;;;;;;;17.67;9.75;;;;;;;;;;7396865;19;20158;-89
2022/06/19 15:37:20;;;;;;;20.73;10.60;;;;;;;;;;7396635;19;20129;-89
2022/06/19 15:39:51;;;;;;;18.30;9.43;;;;;;;;;;7399425;19;20150;-91
2022/06/19 15:42:17;;;;;;;22.45;9.30;;;;;;;;;;7403658;19;20132;-90
2022/06/19 15:45:16;;;;;;;21.88;9.73;;;;;;;;;;7410676;19;20139;-91
2022/06/19 15:48:03;;;;;;;20.13;9.55;;;;;;;;;;7404471;19;20152;-88
2022/06/19 15:50:48;;;;;;;17.20;9.10;;;;;;;;;;7403839;19;20168;-88
2022/06/19 15:53:16;;;;;;;18.90;10.10;;;;;;;;;;7407123;19;20653;-89
2022/06/19 15:55:45;;;;;;;19.20;9.77;;;;;;;;;;7407918;19;20464;-89
2022/06/19 15:58:16;;;;;;;23.02;9.30;;;;;;;;;;7409432;19;20159;-90
2022/06/19 16:00:44;;;;;;;16.23;9.25;;;;;;;;;;7405484;19;20191;-89
2022/06/19 16:03:23;;;;;;;20.65;10.55;;;;;;;;;;7408580;19;20149;-89
2022/06/19 16:05:51;;;;;;;17.65;10.15;;;;;;;;;;7408390;19;20140;-89
2022/06/19 16:08:19;;;;;;;16.55;9.38;;;;;;;;;;7409367;19;20140;-88
2022/06/19 16:10:53;;;;;;;22.08;9.70;;;;;;;;;;7408047;19;20148;-88
2022/06/19 16:13:23;;;;;;;18.33;9.65;;;;;;;;;;7404847;19;20156;-88
2022/06/19 16:16:10;;;;;;;22.10;9.23;;;;;;;;;;7403995;19;20253;-88
2022/06/19 16:18:36;;;;;;;25.25;10.13;;;;;;;;;;7403640;19;20144;-87
2022/06/19 16:21:03;;;;;;;16.80;8.52;;;;;;;;;;7402010;19;20179;-86
2022/06/19 16:23:38;;;;;;;15.85;8.98;;;;;;;;;;7406105;19;20952;-88
2022/06/19 16:26:04;;;;;;;21.52;9.07;;;;;;;;;;7410042;19;20148;-88
2022/06/19 16:28:33;;;;;;;18.35;8.68;;;;;;;;;;7407233;19;20595;-87
2022/06/19 16:31:07;;;;;;;19.88;9.32;;;;;;;;;;7402441;19;20205;-88
2022/06/19 16:33:43;;;;;;;21.05;9.43;;;;;;;;;;7403092;19;20151;-88
2022/06/19 16:44:32;;;;;;;17.15;8.85;;;;;;;;;;7404905;19;20132;-89
2022/06/19 16:47:06;;;;;;;21.52;9.13;;;;;;;;;;7402976;19;20624;-88
2022/06/19 16:49:35;;;;;;;24.40;13.57;;;;;;;;;;7398986;19;20211;-90
2022/06/19 16:52:04;;;;;;;17.17;8.30;;;;;;;;;;7398914;19;20152;-89
2022/06/19 16:54:38;;;;;;;18.20;9.10;;;;;;;;;;7394715;19;20161;-90
2022/06/19 16:57:20;;;;;;;20.75;8.63;;;;;;;;;;7404159;19;20136;-88
2022/06/19 16:59:49;;;;;;;18.15;8.48;;;;;;;;;;7400361;19;20136;-90
2022/06/19 17:02:22;;;;;;;19.70;7.55;;;;;;;;;;7403458;19;20621;-86
2022/06/19 17:04:48;;;;;;;19.27;7.85;;;;;;;;;;7407787;19;20153;-87
2022/06/19 17:07:15;;;;;;;15.20;7.93;;;;;;;;;;7403276;19;20148;-86
2022/06/19 17:09:43;;;;;;;17.42;8.25;;;;;;;;;;7404797;19;20210;-86
2022/06/19 17:12:31;;;;;;;13.63;8.15;;;;;;;;;;7403586;19;20195;-85
2022/06/19 17:14:59;;;;;;;16.33;8.50;;;;;;;;;;7402753;19;20149;-85
2022/06/19 17:17:28;;;;;;;23.40;8.55;;;;;;;;;;7396680;19;20228;-86
2022/06/19 17:19:57;;;;;;;16.08;8.10;;;;;;;;;;7390102;19;20153;-87
2022/06/19 17:22:24;;;;;;;18.75;8.75;;;;;;;;;;7394541;19;20149;-86
2022/06/19 17:24:53;;;;;;;18.67;9.02;;;;;;;;;;7397580;19;20160;-87
2022/06/19 17:27:22;;;;;;;22.23;8.18;;;;;;;;;;7401987;19;20133;-86
2022/06/19 19:22:29;;;;;;;21.05;8.43;;;;;;;;;;3522168;19;50702;-80
2022/06/19 19:24:55;;;;;;;13.95;7.28;;;;;;;;;;7396680;19;20599;-80
2022/06/19 19:27:22;;;;;;;20.77;8.15;;;;;;;;;;7415183;19;20166;-82
2022/06/19 19:29:52;;;;;;;20.88;7.82;;;;;;;;;;7413260;19;20244;-80
2022/06/19 19:32:18;;;;;;;15.45;7.25;;;;;;;;;;7384301;19;20133;-82
2022/06/19 19:34:44;;;;;;;14.70;7.70;;;;;;;;;;7381859;19;20156;-82
2022/06/19 19:37:12;;;;;;;21.55;8.45;;;;;;;;;;7389581;19;20471;-83
2022/06/19 19:39:39;;;;;;;15.23;7.90;;;;;;;;;;7391824;19;20137;-83
2022/06/19 19:42:11;;;;;;;14.52;7.75;;;;;;;;;;7391368;19;20136;-83
2022/06/19 19:44:37;;;;;;;22.23;8.70;;;;;;;;;;7392278;19;20133;-83
2022/06/19 19:47:04;;;;;;;22.58;9.07;;;;;;;;;;7384492;19;20140;-83
2022/06/19 19:49:30;;;;;;;14.60;7.90;;;;;;;;;;7386464;19;20222;-83
2022/06/19 19:52:02;;;;;;;14.35;8.70;;;;;;;;;;7383609;19;20137;-83
2022/06/19 19:54:29;;;;;;;21.63;8.27;;;;;;;;;;7385479;19;20214;-83
2022/06/19 19:56:58;;;;;;;20.42;8.43;;;;;;;;;;7379551;19;20507;-82
2022/06/19 19:59:24;;;;;;;17.70;8.10;;;;;;;;;;7386079;19;20172;-83
2022/06/19 20:01:51;;;;;;;17.25;8.75;;;;;;;;;;7390269;19;20459;-82
2022/06/19 20:04:17;;;;;;;17.48;8.55;;;;;;;;;;7392366;19;20157;-83
2022/06/19 20:12:15;;;;;;;14.30;9.10;;;;;;;;;;7390457;19;20136;-83
2022/06/19 20:14:43;;;;;;;20.95;12.05;;;;;;;;;;7387577;19;20531;-83
2022/06/19 20:17:35;;;;;;;15.05;8.68;;;;;;;;;;7385790;19;20133;-81
2022/06/19 20:20:26;;;;;;;15.95;8.95;;;;;;;;;;7387118;19;20571;-82
2022/06/19 20:22:58;;;;;;;13.75;8.43;;;;;;;;;;7403660;19;20165;-81
2022/06/19 20:25:31;;;;;;;17.33;9.50;;;;;;;;;;7418505;19;20172;-81
2022/06/19 20:28:02;;;;;;;14.63;8.55;;;;;;;;;;7419448;19;20133;-80
2022/06/19 20:30:43;;;;;;;13.88;8.30;;;;;;;;;;7417793;19;20168;-81
2022/06/19 20:33:28;;;;;;;14.95;8.68;;;;;;;;;;7418903;19;20176;-81
2022/06/19 20:36:07;;;;;;;14.30;8.27;;;;;;;;;;7417733;19;20141;-81
2022/06/19 20:38:40;;;;;;;21.20;8.88;;;;;;;;;;7419762;19;20125;-82
2022/06/19 20:43:55;;;;;;;16.50;8.90;;;;;;;;;;7394881;19;20617;-82
2022/06/19 20:46:25;;;;;;;15.32;7.80;;;;;;;;;;7383952;19;20145;-82
2022/06/19 20:48:52;;;;;;;15.57;8.65;;;;;;;;;;7389187;19;20493;-82
2022/06/19 20:51:18;;;;;;;16.42;8.80;;;;;;;;;;7383340;19;20157;-82
2022/06/19 20:53:46;;;;;;;15.38;8.32;;;;;;;;;;7404476;19;20139;-82
2022/06/19 20:56:14;;;;;;;16.83;8.48;;;;;;;;;;7410977;19;20137;-82
2022/06/19 20:58:40;;;;;;;20.30;9.25;;;;;;;;;;7402530;19;20136;-83
2022/06/19 21:01:07;;;;;;;15.18;8.02;;;;;;;;;;7384954;19;20571;-82
2022/06/19 21:03:33;;;;;;;15.65;8.23;;;;;;;;;;7383557;19;20136;-82
2022/06/19 21:05:59;;;;;;;12.27;7.95;;;;;;;;;;7389541;19;20131;-82
2022/06/19 21:08:31;;;;;;;12.52;8.73;;;;;;;;;;7382144;19;20164;-83
2022/06/19 21:10:58;;;;;;;9.30;7.20;;;;;;;;;;7385256;19;20232;-82
2022/06/19 21:13:29;;;;;;;11.40;7.53;;;;;;;;;;7384171;19;20129;-82
2022/06/19 21:15:57;;;;;;;11.10;7.97;;;;;;;;;;7408145;19;20133;-79
2022/06/19 21:18:23;;;;;;;13.93;7.68;;;;;;;;;;7416033;19;20173;-82
2022/06/19 21:20:49;;;;;;;14.18;8.82;;;;;;;;;;7391887;19;20133;-83
2022/06/19 21:23:23;;;;;;;11.27;7.78;;;;;;;;;;7382980;19;20137;-83
2022/06/19 21:25:50;;;;;;;11.82;7.75;;;;;;;;;;7389352;19;20542;-83
2022/06/19 21:28:17;;;;;;;14.13;7.68;;;;;;;;;;7376246;19;20231;-83
2022/06/19 21:30:47;;;;;;;12.45;7.80;;;;;;;;;;7381255;19;20172;-83
2022/06/19 21:33:14;;;;;;;12.55;7.55;;;;;;;;;;7374986;19;20599;-84
2022/06/19 21:35:40;;;;;;;12.50;8.45;;;;;;;;;;7384707;19;20135;-83
2022/06/19 21:38:06;;;;;;;13.55;8.35;;;;;;;;;;7386687;19;20136;-84
2022/06/19 21:40:34;;;;;;;15.23;8.05;;;;;;;;;;7388440;19;20173;-84
2022/06/19 21:43:00;;;;;;;14.95;8.13;;;;;;;;;;7385198;19;20229;-84
2022/06/19 21:45:27;;;;;;;14.50;8.05;;;;;;;;;;7387345;19;20140;-83
2022/06/19 21:47:54;;;;;;;12.90;8.40;;;;;;;;;;7385233;19;20200;-83
2022/06/19 21:50:21;;;;;;;13.50;7.95;;;;;;;;;;7380670;19;20157;-84
2022/06/19 21:52:48;;;;;;;14.75;7.97;;;;;;;;;;7386556;19;20126;-83
2022/06/19 21:55:16;;;;;;;11.75;7.68;;;;;;;;;;7383102;19;20156;-82
2022/06/19 21:57:43;;;;;;;11.73;7.85;;;;;;;;;;7379151;19;20137;-82
2022/06/19 22:00:29;;;;;;;12.07;7.30;;;;;;;;;;7378727;19;20176;-83
2022/06/19 22:02:56;;;;;;;14.70;8.05;;;;;;;;;;7381849;19;20439;-83
2022/06/19 22:05:22;;;;;;;10.85;8.05;;;;;;;;;;7381664;19;20525;-82
2022/06/19 22:07:49;;;;;;;11.75;8.23;;;;;;;;;;7385057;19;20181;-83
2022/06/19 22:13:03;;;;;;;14.98;8.43;;;;;;;;;;7389177;19;20113;-83
2022/06/19 22:15:29;;;;;;;14.65;7.75;;;;;;;;;;7393213;19;20148;-81
2022/06/19 22:17:55;;;;;;;15.05;8.52;;;;;;;;;;7418615;19;20121;-82
2022/06/19 22:20:21;;;;;;;15.30;8.18;;;;;;;;;;7408173;19;20698;-82
2022/06/19 22:22:49;;;;;;;12.70;7.55;;;;;;;;;;7410913;19;20590;-82
2022/06/19 22:25:15;;;;;;;11.80;8.10;;;;;;;;;;7394175;19;20140;-82
2022/06/19 22:27:42;;;;;;;13.73;7.72;;;;;;;;;;7392989;19;20136;-83
2022/06/19 22:30:19;;;;;;;17.23;8.70;;;;;;;;;;7386988;19;20171;-83
2022/06/19 22:32:45;;;;;;;12.35;8.05;;;;;;;;;;7392213;19;20156;-83
2022/06/19 22:35:11;;;;;;;12.63;8.05;;;;;;;;;;7390517;19;20662;-82
2022/06/19 22:37:37;;;;;;;14.60;9.00;;;;;;;;;;7390800;19;20137;-83
2022/06/19 22:40:05;;;;;;;11.75;8.07;;;;;;;;;;7389576;19;20738;-83
2022/06/19 22:42:35;;;;;;;10.98;8.25;;;;;;;;;;7391110;19;20156;-82
2022/06/19 22:45:01;;;;;;;11.63;8.57;;;;;;;;;;7388418;19;20129;-82
2022/06/19 22:47:28;;;;;;;10.70;7.93;;;;;;;;;;7388018;19;20185;-82
2022/06/19 22:49:54;;;;;;;10.13;7.63;;;;;;;;;;7385315;19;20177;-82
2022/06/19 22:52:21;;;;;;;11.10;8.27;;;;;;;;;;7395690;19;20110;-81
2022/06/19 22:54:48;;;;;;;14.70;7.90;;;;;;;;;;7388738;19;20157;-82
2022/06/19 22:57:21;;;;;;;13.55;8.77;;;;;;;;;;7388832;19;20137;-82
2022/06/19 23:02:37;;;;;;;11.20;8.25;;;;;;;;;;7396073;19;20618;-82
2022/06/19 23:05:06;;;;;;;13.10;8.43;;;;;;;;;;7393898;19;20160;-82
2022/06/19 23:07:32;;;;;;;15.50;8.75;;;;;;;;;;7392063;19;20144;-82
2022/06/19 23:09:58;;;;;;;13.55;8.35;;;;;;;;;;7389892;19;20133;-82
2022/06/19 23:12:25;;;;;;;18.33;9.52;;;;;;;;;;7389596;19;20153;-82
2022/06/19 23:14:51;;;;;;;14.05;8.30;;;;;;;;;;7390547;19;20610;-82
2022/06/19 23:17:17;;;;;;;14.18;8.15;;;;;;;;;;7386853;19;20133;-83
2022/06/19 23:19:43;;;;;;;12.70;8.82;;;;;;;;;;7388359;19;20190;-82
2022/06/19 23:22:10;;;;;;;8.85;7.55;;;;;;;;;;7386664;19;20591;-82
2022/06/19 23:24:45;;;;;;;11.15;8.05;;;;;;;;;;7385428;19;20131;-82
2022/06/19 23:27:15;;;;;;;16.83;8.75;;;;;;;;;;7390189;19;20132;-82
2022/06/19 23:29:42;;;;;;;13.95;7.95;;;;;;;;;;7387885;19;20137;-82
2022/06/19 23:32:10;;;;;;;12.85;8.50;;;;;;;;;;7392365;19;20125;-83
2022/06/19 23:34:36;;;;;;;12.07;8.32;;;;;;;;;;7387313;19;20125;-82
2022/06/19 23:37:03;;;;;;;14.48;8.07;;;;;;;;;;7388693;19;20502;-82
2022/06/19 23:39:32;;;;;;;9.88;7.70;;;;;;;;;;7388401;19;20137;-83
2022/06/19 23:42:10;;;;;;;12.52;8.15;;;;;;;;;;7380307;19;20148;-83
2022/06/19 23:44:36;;;;;;;12.95;8.45;;;;;;;;;;7383687;19;20462;-82
2022/06/19 23:47:03;;;;;;;10.93;8.30;;;;;;;;;;7382387;19;20133;-82
2022/06/19 23:49:29;;;;;;;11.75;9.45;;;;;;;;;;7383179;19;20125;-82
2022/06/19 23:51:55;;;;;;;12.38;8.88;;;;;;;;;;7378714;19;20125;-82
2022/06/19 23:54:22;;;;;;;12.70;7.93;;;;;;;;;;7387326;19;20129;-82
2022/06/19 23:56:48;;;;;;;10.18;8.20;;;;;;;;;;7385757;19;20144;-83
2022/06/19 23:59:15;;;;;;;11.23;8.40;;;;;;;;;;7384207;19;20143;-82
